Mayfield, Oklahoma
Current Conditions -  °F | °C
As of 7:53 AM on Tuesday 27 Jan 2015 (Local Time) from KCSM Reporting Station
Clear Clear  
Wind Chill: 42°   Ceiling: Unl
Heat Index: 47°   Visibility: 10mi
Dew Point: 35°   Wind: 10mph
Humidity: 63%   Direction: 310°NW
Pressure: 30.18"   Gusts: NA
Location:  35.34°N, 99.88°W
Report Text: KCSM 271353Z AUTO 31009KT 10SM CLR 08/02 A3018 RMK AO2 SLP214 T00830017
Loading
Personal Weather Stations






























Interactive Weather Map New forecast layout! Learn more

10-Day Weather Forecast

Advertisements
Track Severe Weather on mobile